Afranio, Brazil
Current Conditions -  °F | °C
As of 1:00 AM on Wednesday 26 Nov 2014 (Local Time) from SBPL Reporting Station
Clear Clear  
Wind Chill: 81°   Ceiling: Unl
Heat Index: 83°   Visibility: 6mi
Dew Point: 68°   Wind: 12mph
Humidity: 65%   Direction: 120°ESE
Pressure: 29.88"   Gusts: NA
Location:  8.52°S, 41°W
Report Text: SBPL 260400Z 12010KT CAVOK 27/20 Q1012
Loading
Personal Weather Stations






























Interactive Weather Map New forecast layout! Learn more

10-Day Weather Forecast

Advertisements
Track Severe Weather on mobile